createdAt,value
2018-12-08T00:00:39.109Z,38.85
2018-12-08T00:03:07.346Z,37.38
2018-12-08T00:05:35.570Z,36.93
2018-12-08T00:08:03.815Z,38.00
2018-12-08T00:10:32.053Z,42.33
2018-12-08T00:13:00.237Z,41.20
2018-12-08T00:15:28.469Z,39.83
2018-12-08T00:17:56.692Z,36.03
2018-12-08T00:20:24.933Z,35.95
2018-12-08T00:22:53.178Z,34.73
2018-12-08T00:25:22.046Z,37.90
2018-12-08T00:27:50.298Z,35.00
2018-12-08T00:30:23.607Z,35.90
2018-12-08T00:32:51.852Z,35.17
2018-12-08T00:35:20.046Z,35.90
2018-12-08T00:37:48.282Z,38.95
2018-12-08T00:40:16.513Z,36.23
2018-12-08T00:42:44.789Z,27.60
2018-12-08T00:45:13.111Z,25.17
2018-12-08T00:47:41.273Z,24.00
2018-12-08T00:50:09.466Z,36.10
2018-12-08T00:52:37.869Z,42.75
2018-12-08T00:55:05.994Z,42.55
2018-12-08T00:57:34.208Z,42.35
2018-12-08T01:00:02.531Z,41.08
2018-12-08T01:02:31.564Z,35.13
2018-12-08T01:04:59.953Z,36.88
2018-12-08T01:07:27.927Z,38.98
2018-12-08T01:09:56.152Z,38.55
2018-12-08T01:12:24.432Z,37.42
2018-12-08T01:14:53.154Z,34.05
2018-12-08T01:17:21.421Z,32.75
2018-12-08T01:19:49.694Z,30.70
2018-12-08T01:22:18.015Z,28.02
2018-12-08T01:24:46.257Z,28.65
2018-12-08T01:27:14.556Z,38.13
2018-12-08T01:29:42.776Z,56.15
2018-12-08T01:32:14.315Z,29.92
2018-12-08T01:34:42.556Z,31.07
2018-12-08T01:37:10.797Z,36.23
2018-12-08T01:39:38.996Z,32.00
2018-12-08T01:42:07.237Z,31.12
2018-12-08T01:44:35.416Z,30.97
2018-12-08T01:47:03.729Z,35.95
2018-12-08T01:49:32.005Z,38.35
2018-12-08T01:52:00.271Z,35.45
2018-12-08T01:54:28.436Z,35.25
2018-12-08T01:56:56.642Z,34.78
2018-12-08T01:59:24.878Z,31.87
2018-12-08T02:01:52.965Z,31.57
2018-12-08T02:04:21.316Z,31.12
2018-12-08T02:06:49.518Z,38.92
2018-12-08T02:09:17.840Z,35.70
2018-12-08T02:11:46.085Z,25.90
2018-12-08T02:14:14.361Z,26.10
2018-12-08T02:16:44.153Z,32.80
2018-12-08T02:19:12.367Z,35.38
2018-12-08T02:21:40.772Z,35.08
2018-12-08T02:24:08.988Z,33.58
2018-12-08T02:26:37.200Z,34.90
2018-12-08T02:29:05.587Z,34.67
2018-12-08T02:31:33.825Z,34.75
2018-12-08T02:34:02.076Z,32.55
2018-12-08T02:36:30.385Z,32.25
2018-12-08T02:38:58.601Z,33.40
2018-12-08T02:41:26.825Z,40.30
2018-12-08T02:43:55.583Z,38.60
2018-12-08T02:46:23.920Z,35.73
2018-12-08T02:48:52.341Z,36.00
2018-12-08T02:51:20.585Z,35.78
2018-12-08T02:53:48.832Z,35.30
2018-12-08T02:56:17.101Z,32.40
2018-12-08T02:58:45.365Z,35.30
2018-12-08T03:01:13.543Z,31.80
2018-12-08T03:03:41.962Z,31.77
2018-12-08T03:06:10.180Z,31.27
2018-12-08T03:08:38.234Z,30.92
2018-12-08T03:11:06.466Z,28.98
2018-12-08T03:13:34.678Z,32.90
2018-12-08T03:16:02.913Z,28.15
2018-12-08T03:18:31.130Z,24.82
2018-12-08T03:20:59.346Z,28.65
2018-12-08T03:23:27.820Z,26.20
2018-12-08T03:25:56.045Z,25.85
2018-12-08T03:28:24.270Z,19.77
2018-12-08T03:30:52.532Z,28.25
2018-12-08T03:33:20.733Z,21.80
2018-12-08T03:35:48.969Z,18.92
2018-12-08T03:38:17.189Z,16.42
2018-12-08T03:40:45.360Z,15.65
2018-12-08T03:43:13.622Z,22.58
2018-12-08T03:45:41.949Z,21.10
2018-12-08T03:48:10.166Z,28.17
2018-12-08T03:50:39.130Z,29.40
2018-12-08T03:53:08.221Z,29.57
2018-12-08T03:55:36.487Z,29.50
2018-12-08T03:58:04.808Z,30.02
2018-12-08T04:00:33.150Z,29.48
2018-12-08T04:03:01.451Z,31.75
2018-12-08T04:05:29.696Z,34.65
2018-12-08T04:07:57.921Z,35.38
2018-12-08T04:10:26.156Z,24.77
2018-12-08T04:12:54.378Z,21.17
2018-12-08T04:15:22.650Z,14.30
2018-12-08T04:17:50.969Z,14.83
2018-12-08T04:20:19.307Z,12.45
2018-12-08T04:22:47.513Z,21.17
2018-12-08T04:25:15.760Z,31.97
2018-12-08T04:27:43.868Z,36.88
2018-12-08T04:30:12.113Z,42.60
2018-12-08T04:32:40.436Z,39.25
2018-12-08T04:35:08.759Z,39.35
2018-12-08T04:37:36.972Z,42.78
2018-12-08T04:40:05.302Z,40.65
2018-12-08T04:42:33.527Z,42.10
2018-12-08T04:45:02.547Z,40.52
2018-12-08T04:47:30.990Z,36.63
2018-12-08T04:49:59.275Z,35.83
2018-12-08T04:52:27.554Z,46.80
2018-12-08T04:54:55.875Z,57.30
2018-12-08T04:57:25.145Z,46.80
2018-12-08T04:59:53.419Z,40.40
2018-12-08T05:02:22.069Z,47.50
2018-12-08T05:04:50.459Z,49.27
2018-12-08T05:07:18.790Z,46.90
2018-12-08T05:09:47.224Z,43.83
2018-12-08T05:12:15.521Z,65.35
2018-12-08T05:14:43.780Z,97.62
2018-12-08T05:17:11.990Z,74.97
2018-12-08T05:19:40.281Z,49.55
2018-12-08T05:22:08.533Z,39.15
2018-12-08T05:24:36.796Z,38.05
2018-12-08T05:27:05.086Z,38.83
2018-12-08T05:29:33.363Z,42.45
2018-12-08T05:32:01.686Z,39.78
2018-12-08T05:34:30.006Z,40.65
2018-12-08T05:36:58.253Z,41.25
2018-12-08T05:39:26.589Z,40.70
2018-12-08T05:41:54.814Z,45.92
2018-12-08T05:44:23.029Z,49.23
2018-12-08T05:46:51.305Z,47.78
2018-12-08T05:49:19.563Z,68.15
2018-12-08T05:51:47.845Z,51.53
2018-12-08T05:54:16.166Z,64.12
2018-12-08T05:56:44.487Z,55.17
2018-12-08T05:59:12.907Z,53.30
2018-12-08T06:01:42.097Z,49.03
2018-12-08T06:04:10.355Z,42.95
2018-12-08T06:06:38.676Z,43.20
2018-12-08T06:09:07.331Z,39.83
2018-12-08T06:11:35.568Z,40.17
2018-12-08T06:14:03.831Z,38.38
2018-12-08T06:16:32.053Z,40.25
2018-12-08T06:19:00.292Z,41.53
2018-12-08T06:21:35.865Z,48.23
2018-12-08T06:24:04.127Z,48.92
2018-12-08T06:26:33.405Z,48.25
2018-12-08T06:29:01.682Z,51.53
2018-12-08T06:31:32.932Z,55.33
2018-12-08T06:34:01.157Z,68.28
2018-12-08T06:36:29.365Z,68.15
2018-12-08T06:38:58.703Z,87.70
2018-12-08T06:41:26.937Z,77.90
2018-12-08T06:43:55.116Z,82.57
2018-12-08T06:46:23.369Z,76.35
2018-12-08T06:48:52.058Z,60.90
2018-12-08T06:51:20.329Z,55.92
2018-12-08T06:53:48.544Z,52.05
2018-12-08T06:56:16.867Z,50.43
2018-12-08T06:58:45.090Z,55.55
2018-12-08T07:01:13.360Z,75.30
2018-12-08T07:03:42.583Z,126.77
2018-12-08T07:06:11.004Z,58.73
2018-12-08T07:08:39.323Z,77.23
2018-12-08T07:11:07.544Z,91.07
2018-12-08T07:13:35.784Z,80.00
2018-12-08T07:16:04.033Z,58.20
2018-12-08T07:18:32.225Z,49.40
2018-12-08T07:21:00.457Z,45.93
2018-12-08T07:23:28.689Z,43.53
2018-12-08T07:25:56.903Z,41.30
2018-12-08T07:28:25.100Z,39.40
2018-12-08T07:30:53.350Z,39.80
2018-12-08T07:33:21.575Z,44.07
2018-12-08T07:35:49.777Z,67.73
2018-12-08T07:38:17.909Z,91.37
2018-12-08T07:40:46.116Z,98.93
2018-12-08T07:43:14.339Z,123.60
2018-12-08T07:45:42.569Z,170.77
2018-12-08T07:48:10.844Z,105.50
2018-12-08T07:50:39.000Z,59.23
2018-12-08T07:53:08.530Z,47.90
2018-12-08T07:55:36.809Z,47.57
2018-12-08T07:58:04.953Z,48.67
2018-12-08T08:00:33.202Z,46.97
2018-12-08T08:03:01.388Z,41.00
2018-12-08T08:05:29.726Z,33.83
2018-12-08T08:07:58.109Z,42.63
2018-12-08T08:10:26.322Z,49.53
2018-12-08T08:12:54.581Z,48.73
2018-12-08T08:15:22.829Z,47.27
2018-12-08T08:17:51.157Z,43.07
2018-12-08T08:20:19.258Z,66.97
2018-12-08T08:22:47.465Z,82.03
2018-12-08T08:25:16.098Z,69.40
2018-12-08T08:27:44.667Z,41.97
2018-12-08T08:30:12.991Z,40.40
2018-12-08T08:32:41.216Z,90.90
2018-12-08T08:35:09.335Z,44.37
2018-12-08T08:37:37.596Z,41.30
2018-12-08T08:40:06.597Z,36.87
2018-12-08T08:42:34.836Z,38.93
2018-12-08T08:45:03.112Z,37.30
2018-12-08T08:47:31.345Z,75.63
2018-12-08T08:49:59.652Z,54.37
2018-12-08T08:52:28.026Z,47.87
2018-12-08T08:54:56.236Z,43.00
2018-12-08T08:57:24.720Z,39.57
2018-12-08T08:59:53.081Z,34.57
2018-12-08T09:02:21.286Z,46.57
2018-12-08T09:04:50.745Z,54.67
2018-12-08T09:07:18.990Z,53.13
2018-12-08T09:09:47.221Z,54.20
2018-12-08T09:12:15.433Z,48.17
2018-12-08T09:14:43.767Z,51.57
2018-12-08T09:17:11.963Z,48.73
2018-12-08T09:19:40.257Z,46.20
2018-12-08T09:22:08.585Z,49.23
2018-12-08T09:24:36.825Z,56.93
2018-12-08T09:27:05.052Z,61.50
2018-12-08T09:29:33.294Z,67.93
2018-12-08T09:32:01.496Z,60.93
2018-12-08T09:34:29.780Z,56.50
2018-12-08T09:36:58.033Z,52.77
2018-12-08T09:39:26.318Z,53.47
2018-12-08T09:41:54.285Z,52.40
2018-12-08T09:44:22.508Z,63.13
2018-12-08T09:46:50.709Z,68.30
2018-12-08T09:49:18.950Z,61.37
2018-12-08T09:51:47.219Z,55.97
2018-12-08T09:54:15.156Z,26.00
2018-12-08T09:56:43.384Z,18.90
2018-12-08T09:59:11.620Z,9.50
2018-12-08T10:01:39.850Z,8.77
2018-12-08T10:04:08.061Z,8.00
2018-12-08T10:06:36.029Z,11.20
2018-12-08T10:09:04.607Z,21.70
2018-12-08T10:11:32.824Z,23.07
2018-12-08T10:14:01.041Z,27.67
2018-12-08T10:16:29.919Z,28.73
2018-12-08T10:18:58.176Z,39.53
2018-12-08T10:21:26.463Z,35.37
2018-12-08T10:23:54.680Z,59.13
2018-12-08T10:26:22.988Z,117.17
2018-12-08T10:28:51.220Z,62.87
2018-12-08T10:31:19.385Z,55.90
2018-12-08T10:33:47.661Z,46.00
2018-12-08T10:36:15.828Z,45.37
2018-12-08T10:38:44.028Z,40.97
2018-12-08T10:41:12.265Z,43.43
2018-12-08T10:43:40.489Z,42.93
2018-12-08T10:46:08.761Z,44.87
2018-12-08T10:48:36.981Z,54.77
2018-12-08T10:51:05.401Z,50.13
2018-12-08T10:53:33.644Z,63.37
2018-12-08T10:56:01.861Z,65.47
2018-12-08T10:58:29.961Z,81.13
2018-12-08T11:01:03.205Z,81.00
2018-12-08T11:03:35.573Z,63.17
2018-12-08T11:06:03.797Z,65.47
2018-12-08T11:08:31.996Z,59.27
2018-12-08T11:11:00.293Z,57.77
2018-12-08T11:13:28.574Z,60.43
2018-12-08T11:15:56.833Z,74.67
2018-12-08T11:18:25.110Z,83.27
2018-12-08T11:20:53.321Z,66.23
2018-12-08T11:23:21.594Z,63.87
2018-12-08T11:25:49.827Z,63.57
2018-12-08T11:28:18.076Z,67.43
2018-12-08T11:30:46.356Z,61.00
2018-12-08T11:33:14.621Z,68.43
2018-12-08T11:35:42.813Z,62.07
2018-12-08T11:38:11.117Z,62.13
2018-12-08T11:40:39.351Z,59.47
2018-12-08T11:43:07.301Z,51.50
2018-12-08T11:45:35.574Z,64.47
2018-12-08T11:48:03.832Z,51.73
2018-12-08T11:50:32.117Z,69.20
2018-12-08T11:53:00.370Z,53.43
2018-12-08T11:55:30.388Z,78.90
2018-12-08T11:57:58.817Z,63.40
2018-12-08T12:00:27.492Z,54.70
2018-12-08T12:02:55.879Z,57.40
2018-12-08T12:05:24.091Z,59.70
2018-12-08T12:07:52.297Z,92.33
2018-12-08T12:10:20.584Z,72.03
2018-12-08T12:12:48.908Z,48.60
2018-12-08T12:15:17.225Z,41.07
2018-12-08T12:17:45.480Z,50.20
2018-12-08T12:20:13.687Z,209.37
2018-12-08T12:22:41.913Z,194.57
2018-12-08T12:25:10.310Z,121.60
2018-12-08T12:27:38.557Z,79.00
2018-12-08T12:30:07.549Z,82.57
2018-12-08T12:32:35.801Z,75.63
2018-12-08T12:35:03.937Z,84.57
2018-12-08T12:37:31.890Z,83.13
2018-12-08T12:40:00.093Z,364.23
2018-12-08T12:42:28.276Z,122.17
2018-12-08T12:44:56.488Z,97.97
2018-12-08T12:47:24.729Z,101.47
2018-12-08T12:49:52.692Z,110.07
2018-12-08T12:52:20.926Z,149.83
2018-12-08T12:54:49.346Z,215.23
2018-12-08T12:57:17.624Z,112.77
2018-12-08T12:59:45.829Z,90.83
2018-12-08T13:02:14.108Z,79.03
2018-12-08T13:04:42.336Z,84.83
2018-12-08T13:07:10.577Z,105.83
2018-12-08T13:09:38.716Z,84.07
2018-12-08T13:12:07.000Z,100.60
2018-12-08T13:14:35.240Z,104.07
2018-12-08T13:17:03.527Z,119.20
2018-12-08T13:19:31.785Z,125.10
2018-12-08T13:22:00.069Z,160.17
2018-12-08T13:24:30.897Z,146.73
2018-12-08T13:26:59.160Z,205.43
2018-12-08T13:29:27.729Z,170.30
2018-12-08T13:31:55.784Z,185.17
2018-12-08T13:34:28.094Z,184.53
2018-12-08T13:36:56.361Z,202.83
2018-12-08T13:39:24.596Z,232.23
2018-12-08T13:41:52.803Z,187.43
2018-12-08T13:44:26.244Z,168.60
2018-12-08T13:46:54.457Z,177.53
2018-12-08T13:49:22.437Z,142.07
2018-12-08T13:51:50.681Z,132.43
2018-12-08T13:54:24.412Z,114.90
2018-12-08T13:56:52.711Z,64.87
2018-12-08T13:59:20.977Z,57.90
2018-12-08T14:01:49.300Z,51.27
2018-12-08T14:04:17.505Z,43.03
2018-12-08T14:06:45.851Z,71.70
2018-12-08T14:09:14.161Z,127.13
2018-12-08T14:11:42.432Z,152.93
2018-12-08T14:14:10.743Z,120.17
2018-12-08T14:16:39.025Z,319.17
2018-12-08T14:19:07.397Z,236.33
2018-12-08T14:21:35.656Z,150.60
2018-12-08T14:24:03.944Z,109.87
2018-12-08T14:26:32.254Z,104.73
2018-12-08T14:29:00.727Z,115.97
2018-12-08T14:31:28.816Z,151.03
2018-12-08T14:33:57.224Z,135.90
2018-12-08T14:36:25.578Z,131.30
2018-12-08T14:38:57.489Z,127.73
2018-12-08T14:41:24.119Z,126.33
2018-12-08T14:43:52.503Z,114.80
2018-12-08T14:46:20.885Z,105.73
2018-12-08T14:48:49.212Z,111.37
2018-12-08T14:51:17.629Z,112.77
2018-12-08T14:53:45.836Z,110.40
2018-12-08T14:56:14.092Z,115.17
2018-12-08T14:58:42.265Z,117.83
2018-12-08T15:01:10.465Z,103.70
2018-12-08T15:03:38.708Z,116.80
2018-12-08T15:06:06.985Z,107.17
2018-12-08T15:08:35.229Z,158.10
2018-12-08T15:11:03.193Z,240.77
2018-12-08T15:13:31.368Z,188.67
2018-12-08T15:15:59.596Z,121.27
2018-12-08T15:18:27.837Z,78.80
2018-12-08T15:20:56.049Z,76.50
2018-12-08T15:23:24.269Z,100.50
2018-12-08T15:25:52.544Z,94.07
2018-12-08T15:28:20.767Z,62.43
2018-12-08T15:30:49.020Z,69.33
2018-12-08T15:33:17.304Z,86.63
2018-12-08T15:35:45.564Z,103.97
2018-12-08T15:38:13.517Z,106.60
2018-12-08T15:40:41.764Z,97.23
2018-12-08T15:43:10.032Z,101.53
2018-12-08T15:45:38.354Z,138.33
2018-12-08T15:48:06.544Z,112.43
2018-12-08T15:50:34.776Z,62.20
2018-12-08T15:53:03.113Z,48.37
2018-12-08T15:55:31.388Z,60.63
2018-12-08T15:57:59.634Z,67.97
2018-12-08T16:00:27.925Z,93.53
2018-12-08T16:02:56.193Z,71.53
2018-12-08T16:05:24.412Z,131.37
2018-12-08T16:07:52.617Z,131.90
2018-12-08T16:10:21.047Z,97.83
2018-12-08T16:12:49.277Z,69.60
2018-12-08T16:15:17.505Z,83.00
2018-12-08T16:17:45.713Z,86.07
2018-12-08T16:20:14.168Z,146.83
2018-12-08T16:22:42.457Z,140.33
2018-12-08T16:25:10.675Z,98.57
2018-12-08T16:27:38.897Z,237.67
2018-12-08T16:30:08.122Z,255.57
2018-12-08T16:32:36.337Z,172.63
2018-12-08T16:35:04.648Z,160.27
2018-12-08T16:37:32.978Z,129.90
2018-12-08T16:40:01.202Z,80.60
2018-12-08T16:42:29.420Z,94.10
2018-12-08T16:44:57.736Z,88.93
2018-12-08T16:47:25.957Z,91.90
2018-12-08T16:49:54.237Z,80.63
2018-12-08T16:52:22.482Z,108.60
2018-12-08T16:54:50.716Z,142.37
2018-12-08T16:57:18.680Z,106.90
2018-12-08T16:59:46.881Z,262.33
2018-12-08T17:02:15.057Z,260.90
2018-12-08T17:04:43.301Z,183.70
2018-12-08T17:07:11.502Z,115.30
2018-12-08T17:09:39.819Z,113.03
2018-12-08T17:12:08.050Z,111.40
2018-12-08T17:14:36.383Z,97.97
2018-12-08T17:17:04.652Z,85.20
2018-12-08T17:19:32.908Z,74.50
2018-12-08T17:22:01.126Z,47.27
2018-12-08T17:24:29.405Z,78.33
2018-12-08T17:26:57.571Z,72.90
2018-12-08T17:29:25.801Z,74.27
2018-12-08T17:31:54.040Z,109.07
2018-12-08T17:34:22.242Z,95.97
2018-12-08T17:36:50.453Z,71.50
2018-12-08T17:39:18.683Z,85.30
2018-12-08T17:41:46.994Z,100.37
2018-12-08T17:44:15.241Z,80.03
2018-12-08T17:46:43.434Z,81.40
2018-12-08T17:49:11.657Z,104.30
2018-12-08T17:51:40.194Z,89.23
2018-12-08T17:54:08.455Z,83.03
2018-12-08T17:56:36.616Z,72.77
2018-12-08T17:59:04.947Z,66.63
2018-12-08T18:01:33.314Z,57.60
2018-12-08T18:04:01.565Z,56.87
2018-12-08T18:06:29.855Z,66.17
2018-12-08T18:08:58.122Z,65.40
2018-12-08T18:11:26.328Z,60.80
2018-12-08T18:13:54.536Z,91.43
2018-12-08T18:16:22.476Z,95.27
2018-12-08T18:18:50.754Z,104.80
2018-12-08T18:21:19.077Z,96.10
2018-12-08T18:23:47.414Z,135.77
2018-12-08T18:26:15.660Z,108.60
2018-12-08T18:28:43.880Z,105.63
2018-12-08T18:31:12.105Z,85.27
2018-12-08T18:33:40.325Z,84.87
2018-12-08T18:36:08.534Z,74.73
2018-12-08T18:38:36.740Z,106.67
2018-12-08T18:41:04.977Z,112.13
2018-12-08T18:43:33.201Z,90.33
2018-12-08T18:46:01.421Z,68.17
2018-12-08T18:48:29.643Z,49.90
2018-12-08T18:50:57.915Z,41.47
2018-12-08T18:53:26.136Z,46.13
2018-12-08T18:55:54.384Z,112.73
2018-12-08T18:58:22.602Z,101.80
2018-12-08T19:00:50.896Z,155.37
2018-12-08T19:03:19.215Z,125.27
2018-12-08T19:05:47.469Z,145.90
2018-12-08T19:08:15.693Z,134.90
2018-12-08T19:10:43.908Z,86.40
2018-12-08T19:13:12.049Z,148.20
2018-12-08T19:15:40.316Z,91.70
2018-12-08T19:18:08.637Z,89.97
2018-12-08T19:20:37.260Z,70.20
2018-12-08T19:23:05.401Z,75.00
2018-12-08T19:25:33.630Z,75.10
2018-12-08T19:28:01.864Z,84.43
2018-12-08T19:30:30.088Z,84.77
2018-12-08T19:32:58.265Z,88.90
2018-12-08T19:35:26.277Z,101.00
2018-12-08T19:37:54.597Z,120.57
2018-12-08T19:40:22.865Z,115.20
2018-12-08T19:42:51.081Z,96.00
2018-12-08T19:45:19.276Z,82.07
2018-12-08T19:47:47.578Z,71.73
2018-12-08T19:50:15.826Z,66.20
2018-12-08T19:52:44.117Z,61.40
2018-12-08T19:55:12.440Z,49.53
2018-12-08T19:57:40.757Z,51.87
2018-12-08T20:00:10.184Z,47.50
2018-12-08T20:02:38.502Z,44.13
2018-12-08T20:05:06.872Z,43.07
2018-12-08T20:07:35.145Z,39.80
2018-12-08T20:10:03.400Z,44.03
2018-12-08T20:12:31.683Z,43.60
2018-12-08T20:15:00.006Z,38.20
2018-12-08T20:17:28.273Z,48.00
2018-12-08T20:19:56.544Z,106.00
2018-12-08T20:22:24.797Z,78.97
2018-12-08T20:24:53.086Z,87.17
2018-12-08T20:27:21.248Z,66.03
2018-12-08T20:29:49.525Z,56.57
2018-12-08T20:32:17.846Z,43.87
2018-12-08T20:34:46.167Z,45.30
2018-12-08T20:37:14.425Z,33.83
2018-12-08T20:39:42.654Z,35.10
2018-12-08T20:42:10.588Z,32.10
2018-12-08T20:44:39.819Z,42.47
2018-12-08T20:47:08.001Z,43.07
2018-12-08T20:49:36.207Z,28.30
2018-12-08T20:52:04.452Z,21.63
2018-12-08T20:54:32.529Z,22.73
2018-12-08T20:57:00.785Z,23.97
2018-12-08T20:59:28.993Z,22.73
2018-12-08T21:01:57.321Z,27.90
2018-12-08T21:04:25.529Z,23.83
2018-12-08T21:06:53.760Z,23.13
2018-12-08T21:09:21.992Z,23.37
2018-12-08T21:11:50.213Z,24.17
2018-12-08T21:14:18.388Z,30.57
2018-12-08T21:16:46.712Z,47.60
2018-12-08T21:19:15.030Z,50.13
2018-12-08T21:21:43.248Z,47.33
2018-12-08T21:24:11.469Z,46.97
2018-12-08T21:26:39.889Z,47.90
2018-12-08T21:29:08.209Z,49.93
2018-12-08T21:31:36.473Z,41.63
2018-12-08T21:34:04.670Z,36.67
2018-12-08T21:36:32.769Z,36.43
2018-12-08T21:39:01.036Z,45.73
2018-12-08T21:41:29.229Z,45.23
2018-12-08T21:43:57.479Z,46.80
2018-12-08T21:46:25.784Z,43.60
2018-12-08T21:48:53.993Z,46.33
2018-12-08T21:51:22.229Z,49.87
2018-12-08T21:53:50.509Z,58.13
2018-12-08T21:56:18.936Z,47.13
2018-12-08T21:58:47.176Z,46.87
2018-12-08T22:01:15.202Z,46.60
2018-12-08T22:03:43.421Z,47.00
2018-12-08T22:06:11.712Z,56.10
2018-12-08T22:08:40.029Z,52.10
2018-12-08T22:11:08.253Z,64.07
2018-12-08T22:13:36.697Z,69.17
2018-12-08T22:16:04.997Z,60.07
2018-12-08T22:18:33.310Z,60.30
2018-12-08T22:21:01.581Z,73.27
2018-12-08T22:23:29.801Z,73.50
2018-12-08T22:25:58.020Z,72.37
2018-12-08T22:28:26.241Z,85.20
2018-12-08T22:30:54.540Z,71.00
2018-12-08T22:33:22.832Z,71.60
2018-12-08T22:35:51.007Z,67.80
2018-12-08T22:38:19.220Z,66.43
2018-12-08T22:40:47.437Z,76.10
2018-12-08T22:43:15.645Z,72.77
2018-12-08T22:45:43.878Z,66.50
2018-12-08T22:48:12.101Z,64.43
2018-12-08T22:50:40.372Z,60.33
2018-12-08T22:53:08.741Z,62.33
2018-12-08T22:55:36.911Z,65.07
2018-12-08T22:58:05.232Z,91.53
2018-12-08T23:00:39.172Z,84.13
2018-12-08T23:03:07.493Z,79.60
2018-12-08T23:05:35.634Z,72.70
2018-12-08T23:08:03.839Z,80.07
2018-12-08T23:10:32.073Z,84.37
2018-12-08T23:13:00.300Z,78.53
2018-12-08T23:15:28.593Z,70.57
2018-12-08T23:17:56.862Z,72.80
2018-12-08T23:20:25.242Z,70.27
2018-12-08T23:22:53.556Z,54.43
2018-12-08T23:25:21.874Z,54.57
2018-12-08T23:27:50.129Z,61.70
2018-12-08T23:30:18.346Z,53.90
2018-12-08T23:32:46.581Z,53.77
2018-12-08T23:35:14.802Z,48.73
2018-12-08T23:37:43.004Z,46.43
2018-12-08T23:40:11.496Z,54.73
2018-12-08T23:42:39.760Z,49.93
2018-12-08T23:45:08.261Z,50.33
2018-12-08T23:47:36.557Z,52.27
2018-12-08T23:50:05.130Z,48.67
2018-12-08T23:52:33.309Z,48.83
2018-12-08T23:55:01.561Z,46.00
2018-12-08T23:57:29.784Z,47.60
2018-12-08T23:59:58.057Z,49.10
